createdAt,value
2019-05-09T00:01:33.991Z,11.60
2019-05-09T00:04:03.349Z,11.70
2019-05-09T00:06:34.030Z,11.70
2019-05-09T00:09:03.783Z,11.60
2019-05-09T00:11:33.587Z,11.70
2019-05-09T00:14:04.189Z,11.70
2019-05-09T00:16:33.555Z,11.70
2019-05-09T00:19:03.242Z,11.70
2019-05-09T00:21:43.760Z,11.70
2019-05-09T00:24:13.860Z,11.70
2019-05-09T00:26:44.266Z,11.80
2019-05-09T00:29:17.256Z,11.80
2019-05-09T00:31:56.126Z,11.80
2019-05-09T00:34:37.812Z,11.90
2019-05-09T00:37:06.283Z,11.90
2019-05-09T00:39:34.998Z,11.90
2019-05-09T00:42:04.344Z,12.00
2019-05-09T00:44:40.688Z,11.90
2019-05-09T00:47:13.729Z,12.00
2019-05-09T00:49:43.493Z,12.00
2019-05-09T00:52:14.107Z,12.10
2019-05-09T00:54:43.766Z,12.10
2019-05-09T00:57:13.928Z,12.10
2019-05-09T00:59:44.523Z,12.20
2019-05-09T01:02:13.153Z,12.10
2019-05-09T01:04:43.804Z,12.10
2019-05-09T01:07:13.910Z,12.10
2019-05-09T01:09:43.964Z,12.00
2019-05-09T01:12:14.343Z,11.90
2019-05-09T01:14:43.377Z,11.80
2019-05-09T01:17:13.549Z,11.70
2019-05-09T01:19:43.272Z,11.60
2019-05-09T01:22:13.217Z,11.50
2019-05-09T01:24:44.090Z,11.50
2019-05-09T01:27:14.099Z,11.50
2019-05-09T01:29:43.919Z,11.50
2019-05-09T01:32:14.522Z,11.40
2019-05-09T01:34:43.704Z,11.30
2019-05-09T01:37:14.094Z,11.30
2019-05-09T01:39:44.029Z,11.10
2019-05-09T01:42:13.758Z,11.00
2019-05-09T01:44:44.010Z,11.00
2019-05-09T01:47:14.117Z,10.90
2019-05-09T01:49:43.136Z,10.90
2019-05-09T01:52:13.759Z,10.90
2019-05-09T01:54:43.611Z,11.00
2019-05-09T01:57:13.819Z,10.90
2019-05-09T01:59:44.396Z,11.10
2019-05-09T02:02:14.261Z,11.10
2019-05-09T02:04:43.937Z,11.10
2019-05-09T02:07:13.286Z,11.20
2019-05-09T02:09:43.459Z,11.10
2019-05-09T02:12:13.976Z,11.00
2019-05-09T02:14:44.926Z,10.90
2019-05-09T02:17:23.137Z,10.80
2019-05-09T02:19:52.827Z,11.00
2019-05-09T02:22:34.478Z,11.10
2019-05-09T02:25:06.167Z,11.00
2019-05-09T02:27:34.620Z,10.90
2019-05-09T02:30:05.913Z,10.90
2019-05-09T02:32:35.758Z,10.90
2019-05-09T02:35:06.806Z,11.00
2019-05-09T02:37:38.547Z,11.10
2019-05-09T02:40:09.721Z,11.10
2019-05-09T02:42:39.627Z,10.90
2019-05-09T02:45:08.494Z,11.00
2019-05-09T02:47:38.461Z,11.00
2019-05-09T02:50:09.481Z,11.00
2019-05-09T02:52:39.581Z,11.00
2019-05-09T02:55:10.314Z,11.10
2019-05-09T02:57:39.194Z,11.10
2019-05-09T03:00:12.283Z,11.10
2019-05-09T03:02:48.509Z,11.10
2019-05-09T03:05:19.240Z,11.20
2019-05-09T03:07:51.904Z,11.10
2019-05-09T03:10:21.422Z,11.00
2019-05-09T03:12:50.766Z,11.10
2019-05-09T03:15:19.847Z,11.00
2019-05-09T03:17:49.662Z,11.00
2019-05-09T03:20:28.821Z,11.20
2019-05-09T03:22:58.263Z,11.20
2019-05-09T03:25:28.930Z,11.20
2019-05-09T03:27:59.055Z,11.10
2019-05-09T03:30:31.851Z,11.10
2019-05-09T03:33:00.438Z,11.10
2019-05-09T03:35:28.935Z,11.20
2019-05-09T03:38:02.003Z,11.20
2019-05-09T03:40:30.535Z,11.20
2019-05-09T03:42:59.700Z,11.20
2019-05-09T03:45:28.166Z,11.20
2019-05-09T03:47:58.342Z,11.20
2019-05-09T03:50:27.999Z,11.30
2019-05-09T03:52:57.963Z,11.30
2019-05-09T03:55:28.303Z,11.30
2019-05-09T03:58:01.608Z,11.30
2019-05-09T04:00:30.142Z,11.20
2019-05-09T04:02:58.616Z,11.20
2019-05-09T04:05:27.396Z,11.10
2019-05-09T04:07:58.344Z,11.10
2019-05-09T04:10:28.203Z,11.20
2019-05-09T04:12:59.486Z,11.20
2019-05-09T04:15:27.548Z,11.10
2019-05-09T04:17:57.896Z,11.10
2019-05-09T04:20:27.687Z,11.20
2019-05-09T04:22:59.292Z,11.20
2019-05-09T04:25:28.577Z,11.20
2019-05-09T04:27:58.327Z,11.30
2019-05-09T04:30:27.503Z,11.30
2019-05-09T04:32:58.045Z,11.30
2019-05-09T04:35:27.976Z,11.30
2019-05-09T04:37:58.441Z,11.40
2019-05-09T04:40:31.643Z,11.40
2019-05-09T04:43:10.797Z,11.40
2019-05-09T04:45:41.752Z,11.30
2019-05-09T04:48:13.207Z,11.40
2019-05-09T04:50:40.078Z,11.40
2019-05-09T04:53:09.566Z,11.40
2019-05-09T04:55:39.257Z,11.40
2019-05-09T04:58:09.313Z,11.40
2019-05-09T05:00:57.284Z,11.40
2019-05-09T05:03:28.246Z,11.50
2019-05-09T05:05:58.195Z,11.50
2019-05-09T05:08:28.413Z,11.50
2019-05-09T05:10:58.251Z,11.40
2019-05-09T05:13:29.605Z,11.30
2019-05-09T05:15:57.927Z,11.30
2019-05-09T05:18:28.427Z,11.30
2019-05-09T05:20:57.797Z,11.30
2019-05-09T05:23:31.342Z,11.30
2019-05-09T05:26:00.085Z,11.40
2019-05-09T05:28:28.611Z,11.40
2019-05-09T05:30:58.178Z,11.50
2019-05-09T05:33:44.983Z,11.50
2019-05-09T05:36:15.404Z,11.50
2019-05-09T05:38:44.135Z,11.60
2019-05-09T05:41:12.946Z,11.50
2019-05-09T05:43:44.547Z,11.50
2019-05-09T05:46:29.722Z,11.50
2019-05-09T05:48:58.249Z,11.50
2019-05-09T05:51:27.668Z,11.50
2019-05-09T05:53:57.327Z,11.50
2019-05-09T05:56:27.983Z,11.60
2019-05-09T05:58:58.025Z,11.50
2019-05-09T06:01:27.829Z,11.60
2019-05-09T06:03:58.659Z,11.60
2019-05-09T06:06:27.932Z,11.50
2019-05-09T06:08:58.080Z,11.60
2019-05-09T06:11:48.219Z,11.60
2019-05-09T06:14:18.189Z,11.70
2019-05-09T06:16:48.561Z,11.80
2019-05-09T06:19:17.857Z,11.90
2019-05-09T06:21:48.547Z,11.90
2019-05-09T06:24:17.841Z,12.00
2019-05-09T06:26:47.904Z,11.90
2019-05-09T06:29:17.726Z,11.90
2019-05-09T06:31:48.432Z,11.80
2019-05-09T06:34:18.783Z,11.90
2019-05-09T06:36:48.852Z,11.90
2019-05-09T06:39:19.864Z,11.90
2019-05-09T06:41:48.722Z,11.90
2019-05-09T06:44:21.850Z,12.10
2019-05-09T06:46:58.556Z,12.20
2019-05-09T06:49:31.749Z,12.30
2019-05-09T06:51:59.536Z,12.40
2019-05-09T06:54:28.034Z,12.30
2019-05-09T06:56:58.497Z,12.20
2019-05-09T06:59:28.303Z,12.40
2019-05-09T07:02:01.659Z,12.60
2019-05-09T07:04:38.134Z,12.80
2019-05-09T07:07:23.855Z,13.00
2019-05-09T07:09:58.553Z,13.20
2019-05-09T07:12:27.469Z,13.10
2019-05-09T07:14:58.293Z,13.10
2019-05-09T07:17:31.671Z,13.20
2019-05-09T07:19:59.227Z,13.20
2019-05-09T07:22:32.353Z,13.10
2019-05-09T07:25:06.849Z,13.10
2019-05-09T07:27:43.481Z,13.10
2019-05-09T07:30:22.684Z,13.30
2019-05-09T07:33:11.816Z,13.50
2019-05-09T07:35:40.694Z,13.70
2019-05-09T07:38:12.184Z,13.90
2019-05-09T07:40:42.088Z,14.00
2019-05-09T07:43:10.715Z,14.10
2019-05-09T07:45:42.426Z,14.10
2019-05-09T07:48:10.947Z,14.00
2019-05-09T07:50:42.145Z,13.90
2019-05-09T07:53:10.969Z,14.20
2019-05-09T07:55:40.984Z,14.90
2019-05-09T07:58:14.230Z,14.80
2019-05-09T08:00:41.564Z,14.90
2019-05-09T08:03:13.110Z,15.00
2019-05-09T08:05:44.030Z,14.90
2019-05-09T08:08:18.575Z,14.70
2019-05-09T08:10:47.792Z,14.30
2019-05-09T08:13:23.686Z,14.20
2019-05-09T08:15:49.542Z,14.30
2019-05-09T08:18:18.084Z,14.20
2019-05-09T08:20:47.916Z,14.30
2019-05-09T08:23:18.095Z,14.30
2019-05-09T08:25:48.500Z,14.50
2019-05-09T08:28:19.979Z,14.30
2019-05-09T08:30:54.445Z,14.30
2019-05-09T08:33:23.004Z,14.30
2019-05-09T08:35:52.773Z,14.30
2019-05-09T08:38:22.993Z,14.30
2019-05-09T08:40:53.225Z,14.40
2019-05-09T08:43:23.545Z,14.40
2019-05-09T08:45:52.167Z,14.40
2019-05-09T08:48:20.761Z,14.30
2019-05-09T08:50:50.947Z,14.20
2019-05-09T08:53:19.469Z,14.40
2019-05-09T08:55:48.258Z,14.40
2019-05-09T08:58:19.565Z,14.30
2019-05-09T09:00:48.993Z,14.40
2019-05-09T09:03:18.985Z,14.20
2019-05-09T09:05:48.581Z,14.30
2019-05-09T09:08:18.335Z,14.50
2019-05-09T09:10:48.788Z,14.70
2019-05-09T09:13:17.950Z,14.70
2019-05-09T09:16:05.477Z,14.80
2019-05-09T09:18:17.927Z,14.80
2019-05-09T09:20:52.974Z,14.90
2019-05-09T09:23:39.789Z,15.10
2019-05-09T09:25:54.475Z,15.60
2019-05-09T09:28:22.970Z,16.20
2019-05-09T09:30:51.722Z,16.80
2019-05-09T09:33:20.349Z,17.10
2019-05-09T09:35:49.219Z,16.40
2019-05-09T09:38:18.078Z,16.40
2019-05-09T09:40:47.738Z,16.60
2019-05-09T09:43:19.236Z,16.80
2019-05-09T09:45:49.639Z,16.80
2019-05-09T09:48:19.917Z,17.00
2019-05-09T09:50:51.883Z,17.00
2019-05-09T09:53:23.622Z,17.60
2019-05-09T09:56:08.738Z,17.60
2019-05-09T09:58:38.078Z,17.70
2019-05-09T10:01:24.810Z,17.60
2019-05-09T10:03:54.983Z,17.50
2019-05-09T10:06:25.292Z,17.50
2019-05-09T10:08:57.841Z,17.20
2019-05-09T10:11:28.652Z,16.60
2019-05-09T10:14:00.444Z,16.40
2019-05-09T10:16:41.296Z,16.30
2019-05-09T10:19:18.399Z,16.20
2019-05-09T10:21:54.277Z,16.40
2019-05-09T10:25:04.566Z,17.00
2019-05-09T10:27:38.607Z,17.00
2019-05-09T10:30:13.669Z,17.50
2019-05-09T10:32:43.818Z,17.70
2019-05-09T10:35:17.586Z,17.70
2019-05-09T10:37:48.542Z,17.70
2019-05-09T10:40:22.918Z,17.80
2019-05-09T10:43:02.200Z,17.80
2019-05-09T10:45:44.624Z,17.90
2019-05-09T10:48:13.179Z,17.60
2019-05-09T10:50:53.620Z,17.30
2019-05-09T10:53:17.969Z,17.20
2019-05-09T10:55:48.120Z,17.10
2019-05-09T10:58:20.200Z,17.30
2019-05-09T11:00:48.744Z,17.30
2019-05-09T11:03:18.117Z,17.50
2019-05-09T11:05:47.756Z,17.80
2019-05-09T11:08:18.474Z,18.10
2019-05-09T11:10:48.443Z,17.90
2019-05-09T11:13:18.158Z,17.90
2019-05-09T11:15:48.439Z,18.10
2019-05-09T11:18:18.522Z,18.20
2019-05-09T11:20:47.176Z,18.10
2019-05-09T11:23:19.675Z,18.10
2019-05-09T11:25:48.509Z,18.00
2019-05-09T11:28:18.828Z,18.10
2019-05-09T11:30:52.345Z,18.10
2019-05-09T11:33:20.804Z,18.00
2019-05-09T11:35:49.360Z,17.90
2019-05-09T11:38:30.963Z,17.80
2019-05-09T11:40:48.551Z,17.70
2019-05-09T11:43:18.177Z,17.90
2019-05-09T11:45:47.900Z,17.70
2019-05-09T11:48:18.609Z,17.90
2019-05-09T11:50:49.354Z,18.40
2019-05-09T11:53:17.836Z,18.80
2019-05-09T11:55:48.406Z,18.60
2019-05-09T12:01:08.084Z,17.90
2019-05-09T12:03:38.705Z,17.30
2019-05-09T12:06:07.988Z,17.40
2019-05-09T12:08:38.726Z,17.70
2019-05-09T12:11:08.410Z,17.80
2019-05-09T12:13:38.050Z,17.30
2019-05-09T12:16:06.706Z,17.40
2019-05-09T12:18:37.663Z,17.60
2019-05-09T12:21:08.414Z,17.80
2019-05-09T12:23:38.090Z,18.10
2019-05-09T12:26:08.776Z,18.50
2019-05-09T12:28:38.667Z,18.50
2019-05-09T12:31:07.904Z,18.30
2019-05-09T12:33:36.687Z,18.70
2019-05-09T12:36:09.274Z,19.20
2019-05-09T12:38:38.878Z,19.20
2019-05-09T12:41:07.876Z,18.70
2019-05-09T12:43:38.571Z,18.70
2019-05-09T12:46:08.755Z,18.80
2019-05-09T12:48:37.329Z,18.50
2019-05-09T12:51:08.193Z,18.50
2019-05-09T12:53:39.373Z,18.60
2019-05-09T12:56:08.248Z,18.50
2019-05-09T12:58:36.838Z,18.70
2019-05-09T13:01:07.515Z,18.80
2019-05-09T13:03:39.013Z,18.70
2019-05-09T13:06:08.259Z,18.70
2019-05-09T13:08:38.546Z,18.50
2019-05-09T13:11:08.000Z,18.40
2019-05-09T13:13:40.846Z,18.20
2019-05-09T13:16:43.433Z,18.00
2019-05-09T13:19:00.231Z,17.80
2019-05-09T13:21:32.215Z,17.80
2019-05-09T13:23:59.575Z,18.00
2019-05-09T13:26:28.813Z,18.30
2019-05-09T13:28:59.133Z,18.50
2019-05-09T13:31:30.654Z,18.60
2019-05-09T13:34:01.078Z,18.60
2019-05-09T13:36:29.588Z,18.40
2019-05-09T13:39:04.679Z,18.30
2019-05-09T13:41:29.101Z,17.90
2019-05-09T13:44:04.881Z,17.50
2019-05-09T13:46:29.765Z,17.20
2019-05-09T13:49:11.335Z,17.20
2019-05-09T13:51:47.042Z,17.30
2019-05-09T13:54:07.077Z,17.50
2019-05-09T13:56:37.247Z,17.50
2019-05-09T13:59:07.988Z,17.40
2019-05-09T14:01:37.782Z,17.40
2019-05-09T14:04:07.978Z,17.30
2019-05-09T14:06:38.936Z,17.20
2019-05-09T14:09:10.545Z,17.20
2019-05-09T14:11:39.353Z,17.30
2019-05-09T14:14:07.853Z,17.20
2019-05-09T14:16:38.776Z,17.20
2019-05-09T14:19:29.787Z,17.20
2019-05-09T14:21:39.695Z,17.30
2019-05-09T14:24:15.020Z,17.30
2019-05-09T14:26:38.567Z,17.10
2019-05-09T14:29:12.125Z,16.50
2019-05-09T14:31:38.871Z,16.00
2019-05-09T14:34:08.787Z,15.80
2019-05-09T14:36:39.097Z,15.80
2019-05-09T14:39:09.317Z,15.90
2019-05-09T14:41:39.139Z,16.30
2019-05-09T14:44:09.322Z,16.60
2019-05-09T14:46:39.148Z,16.80
2019-05-09T14:49:08.124Z,16.90
2019-05-09T14:51:38.054Z,17.00
2019-05-09T14:54:08.633Z,17.10
2019-05-09T14:56:42.042Z,17.20
2019-05-09T14:59:10.915Z,17.30
2019-05-09T15:01:43.660Z,17.40
2019-05-09T15:04:10.004Z,17.40
2019-05-09T15:06:38.838Z,17.20
2019-05-09T15:09:09.461Z,17.10
2019-05-09T15:11:39.969Z,17.10
2019-05-09T15:14:08.569Z,17.00
2019-05-09T15:16:39.314Z,16.90
2019-05-09T15:19:08.671Z,17.00
2019-05-09T15:21:38.243Z,17.00
2019-05-09T15:24:09.238Z,17.00
2019-05-09T15:26:39.741Z,16.80
2019-05-09T15:29:11.211Z,16.50
2019-05-09T15:31:39.774Z,16.40
2019-05-09T15:34:10.352Z,16.30
2019-05-09T15:36:38.601Z,16.20
2019-05-09T15:39:10.010Z,16.20
2019-05-09T15:41:40.106Z,16.30
2019-05-09T15:44:08.835Z,16.40
2019-05-09T15:46:44.975Z,16.50
2019-05-09T15:49:14.994Z,16.40
2019-05-09T15:51:43.692Z,16.30
2019-05-09T15:54:13.823Z,16.00
2019-05-09T15:56:44.303Z,15.70
2019-05-09T15:59:13.302Z,15.60
2019-05-09T16:01:49.022Z,15.50
2019-05-09T16:04:21.318Z,15.40
2019-05-09T16:06:50.232Z,15.30
2019-05-09T16:09:18.170Z,15.30
2019-05-09T16:11:48.421Z,15.20
2019-05-09T16:14:18.421Z,15.20
2019-05-09T16:16:47.926Z,15.20
2019-05-09T16:19:16.815Z,15.20
2019-05-09T16:21:47.771Z,15.30
2019-05-09T16:24:18.878Z,15.40
2019-05-09T16:26:48.831Z,15.50
2019-05-09T16:29:18.021Z,15.60
2019-05-09T16:31:48.221Z,15.80
2019-05-09T16:34:17.749Z,16.00
2019-05-09T16:36:47.993Z,16.00
2019-05-09T16:39:17.922Z,16.00
2019-05-09T16:41:48.359Z,16.00
2019-05-09T16:44:18.241Z,15.90
2019-05-09T16:46:48.505Z,15.90
2019-05-09T16:49:19.992Z,15.80
2019-05-09T16:51:48.590Z,15.90
2019-05-09T16:54:18.118Z,15.80
2019-05-09T16:56:46.884Z,15.90
2019-05-09T16:59:17.553Z,15.90
2019-05-09T17:01:50.114Z,16.00
2019-05-09T17:04:19.092Z,16.00
2019-05-09T17:06:49.923Z,16.10
2019-05-09T17:09:18.782Z,16.00
2019-05-09T17:11:48.135Z,15.90
2019-05-09T17:14:18.939Z,15.90
2019-05-09T17:16:48.250Z,15.90
2019-05-09T17:19:19.485Z,15.90
2019-05-09T17:21:58.671Z,15.90
2019-05-09T17:24:29.590Z,15.80
2019-05-09T17:27:08.721Z,15.80
2019-05-09T17:29:38.306Z,15.80
2019-05-09T17:32:50.758Z,15.90
2019-05-09T17:35:20.322Z,15.50
2019-05-09T17:37:50.318Z,15.30
2019-05-09T17:40:19.900Z,15.20
2019-05-09T17:42:50.088Z,15.00
2019-05-09T17:45:19.926Z,14.90
2019-05-09T17:47:49.587Z,14.90
2019-05-09T17:50:19.391Z,14.90
2019-05-09T17:52:54.218Z,14.70
2019-05-09T17:55:24.470Z,14.60
2019-05-09T17:57:54.178Z,14.50
2019-05-09T18:00:28.012Z,14.40
2019-05-09T18:03:18.183Z,14.20
2019-05-09T18:05:51.471Z,14.00
2019-05-09T18:08:37.717Z,13.60
2019-05-09T18:11:14.325Z,13.40
2019-05-09T18:13:43.578Z,13.10
2019-05-09T18:16:15.042Z,13.00
2019-05-09T18:18:47.892Z,13.00
2019-05-09T18:21:17.767Z,13.10
2019-05-09T18:23:47.983Z,13.30
2019-05-09T18:26:18.677Z,13.30
2019-05-09T18:28:48.541Z,13.30
2019-05-09T18:31:18.417Z,13.40
2019-05-09T18:33:50.436Z,13.50
2019-05-09T18:36:20.926Z,13.60
2019-05-09T18:38:52.518Z,13.60
2019-05-09T18:41:23.030Z,13.70
2019-05-09T18:44:01.791Z,13.70
2019-05-09T18:46:38.458Z,13.60
2019-05-09T18:49:14.456Z,13.50
2019-05-09T18:52:03.741Z,13.30
2019-05-09T18:58:27.104Z,13.20
2019-05-09T19:00:36.593Z,13.60
2019-05-09T19:03:08.034Z,13.70
2019-05-09T19:05:39.817Z,13.70
2019-05-09T19:08:10.722Z,13.60
2019-05-09T19:10:41.194Z,13.60
2019-05-09T19:13:16.119Z,13.60
2019-05-09T19:16:03.114Z,13.70
2019-05-09T19:18:51.127Z,13.60
2019-05-09T19:21:32.558Z,13.60
2019-05-09T19:24:02.412Z,13.60
2019-05-09T19:26:35.379Z,13.40
2019-05-09T19:29:09.120Z,13.30
2019-05-09T19:31:39.159Z,13.20
2019-05-09T19:34:09.019Z,13.20
2019-05-09T19:36:39.077Z,13.20
2019-05-09T19:39:09.543Z,13.20
2019-05-09T19:41:39.420Z,13.30
2019-05-09T19:44:09.209Z,13.30
2019-05-09T19:46:39.558Z,13.30
2019-05-09T19:49:09.273Z,13.30
2019-05-09T19:51:39.083Z,13.30
2019-05-09T19:54:08.909Z,13.30
2019-05-09T19:56:47.231Z,13.30
2019-05-09T19:59:18.217Z,13.30
2019-05-09T20:01:48.226Z,13.30
2019-05-09T20:04:18.168Z,13.30
2019-05-09T20:06:48.032Z,13.40
2019-05-09T20:09:25.183Z,13.40
2019-05-09T20:12:02.184Z,13.40
2019-05-09T20:14:33.803Z,13.50
2019-05-09T20:17:03.936Z,13.50
2019-05-09T20:19:35.286Z,13.50
2019-05-09T20:22:05.097Z,13.50
2019-05-09T20:24:38.866Z,13.50
2019-05-09T20:27:40.731Z,13.50
2019-05-09T20:30:10.603Z,13.50
2019-05-09T20:32:40.368Z,13.30
2019-05-09T20:35:10.280Z,13.10
2019-05-09T20:37:40.529Z,13.00
2019-05-09T20:40:10.510Z,13.00
2019-05-09T20:42:40.626Z,13.10
2019-05-09T20:45:10.995Z,13.00
2019-05-09T20:47:40.839Z,13.00
2019-05-09T20:50:13.927Z,12.90
2019-05-09T20:52:43.875Z,12.90
2019-05-09T20:55:15.721Z,12.80
2019-05-09T20:57:51.975Z,12.80
2019-05-09T21:00:30.762Z,12.80
2019-05-09T21:03:00.767Z,12.70
2019-05-09T21:05:30.670Z,12.70
2019-05-09T21:08:01.991Z,12.60
2019-05-09T21:10:33.486Z,12.50
2019-05-09T21:13:06.325Z,12.70
2019-05-09T21:15:36.587Z,12.70
2019-05-09T21:18:08.510Z,12.60
2019-05-09T21:20:42.370Z,12.60
2019-05-09T21:23:24.894Z,12.50
2019-05-09T21:25:53.265Z,12.40
2019-05-09T21:28:23.106Z,12.50
2019-05-09T21:30:57.070Z,12.60
2019-05-09T21:33:27.708Z,12.50
2019-05-09T21:35:58.977Z,12.40
2019-05-09T21:38:31.110Z,12.40
2019-05-09T21:41:00.844Z,12.30
2019-05-09T21:43:35.036Z,12.20
2019-05-09T21:46:06.407Z,12.20
2019-05-09T21:48:38.824Z,12.20
2019-05-09T21:51:08.665Z,12.30
2019-05-09T21:53:41.592Z,12.30
2019-05-09T21:56:11.515Z,12.30
2019-05-09T21:58:41.541Z,12.20
2019-05-09T22:04:16.652Z,12.10
2019-05-09T22:06:49.244Z,12.00
2019-05-09T22:09:19.173Z,11.90
2019-05-09T22:11:51.523Z,11.80
2019-05-09T22:14:23.193Z,11.90
2019-05-09T22:16:59.190Z,11.90
2019-05-09T22:19:32.027Z,11.90
2019-05-09T22:22:05.293Z,11.80
2019-05-09T22:24:35.344Z,11.80
2019-05-09T22:27:08.177Z,11.90
2019-05-09T22:29:38.031Z,11.90
2019-05-09T22:32:13.325Z,11.90
2019-05-09T22:34:45.692Z,12.00
2019-05-09T22:37:16.085Z,11.90
2019-05-09T22:39:45.825Z,11.80
2019-05-09T22:42:15.530Z,11.70
2019-05-09T22:44:46.870Z,11.60
2019-05-09T22:47:16.547Z,11.60
2019-05-09T22:49:52.777Z,11.50
2019-05-09T22:52:21.777Z,11.60
2019-05-09T22:54:51.747Z,11.60
2019-05-09T22:57:22.602Z,11.60
2019-05-09T22:59:52.264Z,11.60
2019-05-09T23:02:22.092Z,11.60
2019-05-09T23:04:51.804Z,11.50
2019-05-09T23:07:21.482Z,11.50
2019-05-09T23:09:51.258Z,11.50
2019-05-09T23:12:20.965Z,11.40
2019-05-09T23:14:50.622Z,11.40
2019-05-09T23:17:20.902Z,11.30
2019-05-09T23:19:50.625Z,11.30
2019-05-09T23:22:22.240Z,11.20
2019-05-09T23:24:51.874Z,11.20
2019-05-09T23:27:21.810Z,11.30
2019-05-09T23:29:51.791Z,11.10
2019-05-09T23:32:23.450Z,11.10
2019-05-09T23:34:53.158Z,11.10
2019-05-09T23:37:22.983Z,11.10
2019-05-09T23:39:54.702Z,11.00
2019-05-09T23:42:24.927Z,11.10
2019-05-09T23:44:55.109Z,11.00
2019-05-09T23:47:24.822Z,11.00
2019-05-09T23:49:54.799Z,11.00
2019-05-09T23:52:24.792Z,10.90
2019-05-09T23:55:14.041Z,11.00
2019-05-09T23:58:01.614Z,11.00
